Impacts METAR Board
IDs:

KORD - Chicago/O'Hare Intl, IL, US

Updated at: 1100 UTC 09 Jul 2020
Potential Impact None Slight Moderate High
Time 08/23Z 09/00Z 09/01Z 09/02Z 09/03Z 09/04Z 09/05Z 09/06Z 09/07Z 09/08Z 09/09Z 09/10Z 09/11Z
Temp89 86 85 83 82 82 80 79 79 78 78 77 77
Dewpt70 69 68 67 67 67 68 68 68 69 69 70 70
Altim29.87 29.87 29.88 29.90 29.91 29.90 29.90 29.88 29.88 29.89 29.88 29.90 29.90
VIS10 10 10 10 10 10 10 10 10 10 10 10 10
CIG-- 200 200 200 200 220 200 250 -- 250 -- -- 150
CoverSCTBKNBKNBKNBKNBKNBKNBKNSCTBKNSCTFEWBKN
FltCatVFRVFRVFRVFRVFRVFRVFRVFRVFRVFRVFRVFRVFR
WX--------------------------
WDir1201501801601802101601502000200220210
WSpd8 10 5 3 4 4 4 4 3 0 3 5 6
WGst-- -- -- -- -- -- -- -- -- -- -- -- --
Raw hourly METARs
KORD 082251Z 12008KT 10SM FEW045 FEW100 SCT200 32/21 A2987 RMK AO2 LTG DSNT SE-SW RAE2156 SLP110 CB DSNT S-SW P0000 T03170211
KORD 082351Z 15010KT 10SM FEW050 FEW100 SCT150 BKN200 30/21 A2987 RMK AO2 SLP108 CBMAM OHD-S CB DSNT SE-SW 60000 T03000206 10339 20300 57006
KORD 090051Z 18005KT 10SM FEW100 FEW150 BKN200 29/20 A2988 RMK AO2 SLP113 T02940200
KORD 090151Z 16003KT 10SM FEW050 FEW150 BKN200 28/19 A2990 RMK AO2 SLP119 T02830194
KORD 090251Z 18004KT 10SM FEW050 FEW150 BKN200 28/19 A2991 RMK AO2 SLP120 T02780194 51012
KORD 090351Z 21004KT 10SM FEW150 BKN220 28/19 A2990 RMK AO2 SLP117 T02780194 $
KORD 090451Z 16004KT 10SM BKN200 27/20 A2990 RMK AO2 SLP117 T02670200 $
KORD 090551Z 15004KT 10SM SCT200 BKN250 26/20 A2988 RMK AO2 SLP111 T02610200 10306 20261 403390233 58008 $
KORD 090651Z 20003KT 10SM FEW200 SCT250 26/20 A2988 RMK AO2 SLP111 T02610200 $
KORD 090751Z 00000KT 10SM SCT180 BKN250 26/21 A2989 RMK AO2 SLP113 T02560206 $
KORD 090851Z 20003KT 10SM SCT250 26/21 A2988 RMK AO2 SLP113 T02560206 50001 $
KORD 090951Z 22005KT 10SM FEW200 FEW250 25/21 A2990 RMK AO2 SLP117 T02500211 $
KORD 091051Z 21006KT 10SM BKN150 BKN250 25/21 A2990 RMK AO2 SLP117 T02500211 $



Page loaded:  11:05 UTC  |   04:05 AM Pacific  |   05:05 AM Mountain  |   06:05 AM Central  |   07:05 AM Eastern

 

ADVISORIES

FORECASTS

FORECASTS

OBSERVATIONS

USER TOOLS

ABOUT US